sensor_id;sensor_type;location;lat;lon;timestamp;temperature;humidity
5901;DHT22;2976;49.764;9.796;2022-12-13T00:01:21;-8.50;99.90
5901;DHT22;2976;49.764;9.796;2022-12-13T00:03:46;-8.50;99.90
5901;DHT22;2976;49.764;9.796;2022-12-13T00:06:12;-8.40;99.90
5901;DHT22;2976;49.764;9.796;2022-12-13T00:08:39;-8.50;99.90
5901;DHT22;2976;49.764;9.796;2022-12-13T00:11:07;-8.60;99.90
5901;DHT22;2976;49.764;9.796;2022-12-13T00:13:34;-8.70;99.90
5901;DHT22;2976;49.764;9.796;2022-12-13T00:16:06;-8.80;99.90
5901;DHT22;2976;49.764;9.796;2022-12-13T00:18:32;-9.00;99.90
5901;DHT22;2976;49.764;9.796;2022-12-13T00:20:57;-9.10;99.90
5901;DHT22;2976;49.764;9.796;2022-12-13T00:23:23;-9.20;99.90
5901;DHT22;2976;49.764;9.796;2022-12-13T00:25:49;-9.10;99.90
5901;DHT22;2976;49.764;9.796;2022-12-13T00:28:15;-9.00;99.90
5901;DHT22;2976;49.764;9.796;2022-12-13T00:30:41;-9.00;99.90
5901;DHT22;2976;49.764;9.796;2022-12-13T00:33:07;-9.00;99.90
5901;DHT22;2976;49.764;9.796;2022-12-13T00:35:38;-9.10;99.90
5901;DHT22;2976;49.764;9.796;2022-12-13T00:38:03;-9.10;99.90
5901;DHT22;2976;49.764;9.796;2022-12-13T00:40:29;-9.10;99.90
5901;DHT22;2976;49.764;9.796;2022-12-13T00:42:54;-9.10;99.90
5901;DHT22;2976;49.764;9.796;2022-12-13T00:45:20;-9.20;99.90
5901;DHT22;2976;49.764;9.796;2022-12-13T00:47:45;-9.30;99.90
5901;DHT22;2976;49.764;9.796;2022-12-13T00:50:11;-9.30;99.90
5901;DHT22;2976;49.764;9.796;2022-12-13T00:52:37;-9.40;99.90
5901;DHT22;2976;49.764;9.796;2022-12-13T00:55:02;-9.40;99.90
5901;DHT22;2976;49.764;9.796;2022-12-13T00:57:28;-9.50;99.90
5901;DHT22;2976;49.764;9.796;2022-12-13T00:59:54;-9.60;99.90
5901;DHT22;2976;49.764;9.796;2022-12-13T01:02:20;-9.60;99.90
5901;DHT22;2976;49.764;9.796;2022-12-13T01:04:48;-9.60;99.90
5901;DHT22;2976;49.764;9.796;2022-12-13T01:07:14;-9.70;99.90
5901;DHT22;2976;49.764;9.796;2022-12-13T01:09:39;-9.70;99.90
5901;DHT22;2976;49.764;9.796;2022-12-13T01:12:07;-9.70;99.90
5901;DHT22;2976;49.764;9.796;2022-12-13T01:14:37;-9.60;99.90
5901;DHT22;2976;49.764;9.796;2022-12-13T01:17:03;-9.50;99.90
5901;DHT22;2976;49.764;9.796;2022-12-13T01:19:29;-9.50;99.90
5901;DHT22;2976;49.764;9.796;2022-12-13T01:21:57;-9.30;99.90
5901;DHT22;2976;49.764;9.796;2022-12-13T01:24:23;-9.30;99.90
5901;DHT22;2976;49.764;9.796;2022-12-13T01:26:51;-9.30;99.90
5901;DHT22;2976;49.764;9.796;2022-12-13T01:29:17;-9.40;99.90
5901;DHT22;2976;49.764;9.796;2022-12-13T01:31:43;-9.40;99.90
5901;DHT22;2976;49.764;9.796;2022-12-13T01:34:13;-9.40;99.90
5901;DHT22;2976;49.764;9.796;2022-12-13T01:36:41;-9.40;99.90
5901;DHT22;2976;49.764;9.796;2022-12-13T01:39:08;-9.40;99.90
5901;DHT22;2976;49.764;9.796;2022-12-13T01:41:34;-9.30;99.90
5901;DHT22;2976;49.764;9.796;2022-12-13T01:47:07;-9.30;99.90
5901;DHT22;2976;49.764;9.796;2022-12-13T01:49:33;-9.20;99.90
5901;DHT22;2976;49.764;9.796;2022-12-13T01:52:02;-9.30;99.90
5901;DHT22;2976;49.764;9.796;2022-12-13T01:54:34;-9.20;99.90
5901;DHT22;2976;49.764;9.796;2022-12-13T01:57:04;-9.20;99.90
5901;DHT22;2976;49.764;9.796;2022-12-13T01:59:32;-9.30;99.90
5901;DHT22;2976;49.764;9.796;2022-12-13T02:01:58;-9.30;99.90
5901;DHT22;2976;49.764;9.796;2022-12-13T02:04:58;-9.40;99.90
5901;DHT22;2976;49.764;9.796;2022-12-13T02:07:30;-9.60;99.90
5901;DHT22;2976;49.764;9.796;2022-12-13T02:09:59;-9.70;99.90
5901;DHT22;2976;49.764;9.796;2022-12-13T02:12:29;-9.80;99.90
5901;DHT22;2976;49.764;9.796;2022-12-13T02:14:57;-9.70;99.90
5901;DHT22;2976;49.764;9.796;2022-12-13T02:32:09;-9.30;99.90
5901;DHT22;2976;49.764;9.796;2022-12-13T02:39:08;-9.20;99.90
5901;DHT22;2976;49.764;9.796;2022-12-13T02:41:13;-9.20;99.90
5901;DHT22;2976;49.764;9.796;2022-12-13T02:43:54;-9.20;99.90
5901;DHT22;2976;49.764;9.796;2022-12-13T02:46:22;-9.30;99.90
5901;DHT22;2976;49.764;9.796;2022-12-13T02:48:51;-9.30;99.90
5901;DHT22;2976;49.764;9.796;2022-12-13T02:51:19;-9.30;99.90
5901;DHT22;2976;49.764;9.796;2022-12-13T02:53:46;-9.40;99.90
5901;DHT22;2976;49.764;9.796;2022-12-13T02:56:12;-9.40;99.90
5901;DHT22;2976;49.764;9.796;2022-12-13T02:58:43;-9.40;99.90
5901;DHT22;2976;49.764;9.796;2022-12-13T03:07:06;-9.60;99.90
5901;DHT22;2976;49.764;9.796;2022-12-13T03:10:04;-9.60;99.90
5901;DHT22;2976;49.764;9.796;2022-12-13T03:15:38;-9.70;99.90
5901;DHT22;2976;49.764;9.796;2022-12-13T03:18:10;-9.80;99.90
5901;DHT22;2976;49.764;9.796;2022-12-13T03:21:04;-9.70;99.90
5901;DHT22;2976;49.764;9.796;2022-12-13T03:23:30;-9.80;99.90
5901;DHT22;2976;49.764;9.796;2022-12-13T03:26:00;-9.80;99.90
5901;DHT22;2976;49.764;9.796;2022-12-13T03:28:27;-9.80;99.90
5901;DHT22;2976;49.764;9.796;2022-12-13T03:30:52;-9.80;99.90
5901;DHT22;2976;49.764;9.796;2022-12-13T03:33:18;-9.80;99.90
5901;DHT22;2976;49.764;9.796;2022-12-13T03:35:43;-9.90;99.90
5901;DHT22;2976;49.764;9.796;2022-12-13T03:38:11;-10.00;99.90
5901;DHT22;2976;49.764;9.796;2022-12-13T03:40:36;-10.10;99.90
5901;DHT22;2976;49.764;9.796;2022-12-13T03:43:02;-10.10;99.90
5901;DHT22;2976;49.764;9.796;2022-12-13T03:45:28;-9.90;99.90
5901;DHT22;2976;49.764;9.796;2022-12-13T03:47:53;-9.80;99.90
5901;DHT22;2976;49.764;9.796;2022-12-13T03:50:19;-9.80;99.90
5901;DHT22;2976;49.764;9.796;2022-12-13T03:52:45;-10.00;99.90
5901;DHT22;2976;49.764;9.796;2022-12-13T03:55:12;-10.10;99.90
5901;DHT22;2976;49.764;9.796;2022-12-13T03:57:38;-10.30;99.90
5901;DHT22;2976;49.764;9.796;2022-12-13T04:00:04;-10.40;99.90
5901;DHT22;2976;49.764;9.796;2022-12-13T04:02:30;-10.40;99.90
5901;DHT22;2976;49.764;9.796;2022-12-13T04:04:55;-10.30;99.90
5901;DHT22;2976;49.764;9.796;2022-12-13T04:07:21;-10.30;99.90
5901;DHT22;2976;49.764;9.796;2022-12-13T04:09:46;-10.30;99.90
5901;DHT22;2976;49.764;9.796;2022-12-13T04:12:12;-10.40;99.90
5901;DHT22;2976;49.764;9.796;2022-12-13T04:14:56;-10.50;99.90
5901;DHT22;2976;49.764;9.796;2022-12-13T04:17:22;-10.40;99.90
5901;DHT22;2976;49.764;9.796;2022-12-13T04:19:47;-10.10;99.90
5901;DHT22;2976;49.764;9.796;2022-12-13T04:22:13;-10.00;99.90
5901;DHT22;2976;49.764;9.796;2022-12-13T04:24:38;-10.10;99.90
5901;DHT22;2976;49.764;9.796;2022-12-13T04:27:04;-10.20;99.90
5901;DHT22;2976;49.764;9.796;2022-12-13T04:29:30;-10.40;99.90
5901;DHT22;2976;49.764;9.796;2022-12-13T04:31:55;-10.50;99.90
5901;DHT22;2976;49.764;9.796;2022-12-13T04:34:21;-10.60;99.90
5901;DHT22;2976;49.764;9.796;2022-12-13T04:36:46;-10.60;99.90
5901;DHT22;2976;49.764;9.796;2022-12-13T04:39:12;-10.60;99.90
5901;DHT22;2976;49.764;9.796;2022-12-13T04:41:38;-10.60;99.90
5901;DHT22;2976;49.764;9.796;2022-12-13T04:44:05;-10.60;99.90
5901;DHT22;2976;49.764;9.796;2022-12-13T04:46:31;-10.40;99.90
5901;DHT22;2976;49.764;9.796;2022-12-13T04:48:57;-10.30;99.90
5901;DHT22;2976;49.764;9.796;2022-12-13T04:51:22;-10.20;99.90
5901;DHT22;2976;49.764;9.796;2022-12-13T04:53:49;-10.30;99.90
5901;DHT22;2976;49.764;9.796;2022-12-13T04:56:14;-10.50;99.90
5901;DHT22;2976;49.764;9.796;2022-12-13T04:58:40;-10.60;99.90
5901;DHT22;2976;49.764;9.796;2022-12-13T05:01:07;-10.70;99.90
5901;DHT22;2976;49.764;9.796;2022-12-13T05:03:33;-10.80;99.90
5901;DHT22;2976;49.764;9.796;2022-12-13T05:06:02;-10.90;99.90
5901;DHT22;2976;49.764;9.796;2022-12-13T05:08:28;-10.90;99.90
5901;DHT22;2976;49.764;9.796;2022-12-13T05:10:53;-10.90;99.90
5901;DHT22;2976;49.764;9.796;2022-12-13T05:13:19;-10.90;99.90
5901;DHT22;2976;49.764;9.796;2022-12-13T05:15:45;-11.00;99.90
5901;DHT22;2976;49.764;9.796;2022-12-13T05:18:10;-11.00;99.90
5901;DHT22;2976;49.764;9.796;2022-12-13T05:20:37;-11.00;99.90
5901;DHT22;2976;49.764;9.796;2022-12-13T05:23:02;-11.10;99.90
5901;DHT22;2976;49.764;9.796;2022-12-13T05:25:28;-11.00;99.90
5901;DHT22;2976;49.764;9.796;2022-12-13T05:27:55;-10.90;99.90
5901;DHT22;2976;49.764;9.796;2022-12-13T05:30:21;-10.70;99.90
5901;DHT22;2976;49.764;9.796;2022-12-13T05:32:47;-10.50;99.90
5901;DHT22;2976;49.764;9.796;2022-12-13T05:35:14;-10.50;99.90
5901;DHT22;2976;49.764;9.796;2022-12-13T05:37:40;-10.50;99.90
5901;DHT22;2976;49.764;9.796;2022-12-13T05:40:06;-10.80;99.90
5901;DHT22;2976;49.764;9.796;2022-12-13T05:42:32;-10.90;99.90
5901;DHT22;2976;49.764;9.796;2022-12-13T05:44:58;-11.10;99.90
5901;DHT22;2976;49.764;9.796;2022-12-13T05:47:23;-11.20;99.90
5901;DHT22;2976;49.764;9.796;2022-12-13T05:49:49;-11.30;99.90
5901;DHT22;2976;49.764;9.796;2022-12-13T05:52:19;-11.30;99.90
5901;DHT22;2976;49.764;9.796;2022-12-13T05:54:44;-11.30;99.90
5901;DHT22;2976;49.764;9.796;2022-12-13T05:57:10;-11.30;99.90
5901;DHT22;2976;49.764;9.796;2022-12-13T05:59:36;-11.30;99.90
5901;DHT22;2976;49.764;9.796;2022-12-13T06:02:01;-11.40;99.90
5901;DHT22;2976;49.764;9.796;2022-12-13T06:04:27;-11.40;99.90
5901;DHT22;2976;49.764;9.796;2022-12-13T06:06:53;-11.40;99.90
5901;DHT22;2976;49.764;9.796;2022-12-13T06:09:19;-11.30;99.90
5901;DHT22;2976;49.764;9.796;2022-12-13T06:11:45;-11.40;99.90
5901;DHT22;2976;49.764;9.796;2022-12-13T06:14:10;-11.30;99.90
5901;DHT22;2976;49.764;9.796;2022-12-13T06:16:36;-11.20;99.90
5901;DHT22;2976;49.764;9.796;2022-12-13T06:19:02;-11.20;99.90
5901;DHT22;2976;49.764;9.796;2022-12-13T06:21:27;-11.20;99.90
5901;DHT22;2976;49.764;9.796;2022-12-13T06:23:53;-11.20;99.90
5901;DHT22;2976;49.764;9.796;2022-12-13T06:26:19;-11.20;99.90
5901;DHT22;2976;49.764;9.796;2022-12-13T06:28:44;-11.20;99.90
5901;DHT22;2976;49.764;9.796;2022-12-13T06:31:10;-11.20;99.90
5901;DHT22;2976;49.764;9.796;2022-12-13T06:33:35;-11.30;99.90
5901;DHT22;2976;49.764;9.796;2022-12-13T06:36:03;-11.40;99.90
5901;DHT22;2976;49.764;9.796;2022-12-13T06:38:29;-11.40;99.90
5901;DHT22;2976;49.764;9.796;2022-12-13T06:41:14;-11.30;99.90
5901;DHT22;2976;49.764;9.796;2022-12-13T06:43:42;-11.40;99.90
5901;DHT22;2976;49.764;9.796;2022-12-13T06:46:08;-11.40;99.90
5901;DHT22;2976;49.764;9.796;2022-12-13T06:48:34;-11.40;99.90
5901;DHT22;2976;49.764;9.796;2022-12-13T06:51:03;-11.40;99.90
5901;DHT22;2976;49.764;9.796;2022-12-13T06:53:30;-11.40;99.90
5901;DHT22;2976;49.764;9.796;2022-12-13T06:55:56;-11.40;99.90
5901;DHT22;2976;49.764;9.796;2022-12-13T06:58:22;-11.50;99.90
5901;DHT22;2976;49.764;9.796;2022-12-13T07:00:48;-11.50;99.90
5901;DHT22;2976;49.764;9.796;2022-12-13T07:03:14;-11.50;99.90
5901;DHT22;2976;49.764;9.796;2022-12-13T07:05:40;-11.40;99.90
5901;DHT22;2976;49.764;9.796;2022-12-13T07:08:05;-11.50;99.90
5901;DHT22;2976;49.764;9.796;2022-12-13T07:10:31;-11.40;99.90
5901;DHT22;2976;49.764;9.796;2022-12-13T07:12:57;-11.40;99.90
5901;DHT22;2976;49.764;9.796;2022-12-13T07:15:22;-11.40;99.90
5901;DHT22;2976;49.764;9.796;2022-12-13T07:17:49;-11.40;99.90
5901;DHT22;2976;49.764;9.796;2022-12-13T07:20:15;-11.30;99.90
5901;DHT22;2976;49.764;9.796;2022-12-13T07:22:40;-11.20;99.90
5901;DHT22;2976;49.764;9.796;2022-12-13T07:25:06;-11.20;99.90
5901;DHT22;2976;49.764;9.796;2022-12-13T07:27:32;-11.10;99.90
5901;DHT22;2976;49.764;9.796;2022-12-13T07:29:58;-11.10;99.90
5901;DHT22;2976;49.764;9.796;2022-12-13T07:32:24;-11.10;99.90
5901;DHT22;2976;49.764;9.796;2022-12-13T07:34:49;-11.10;99.90
5901;DHT22;2976;49.764;9.796;2022-12-13T07:37:15;-10.90;99.90
5901;DHT22;2976;49.764;9.796;2022-12-13T07:39:40;-10.80;99.90
5901;DHT22;2976;49.764;9.796;2022-12-13T07:42:06;-10.60;99.90
5901;DHT22;2976;49.764;9.796;2022-12-13T07:44:32;-10.50;99.90
5901;DHT22;2976;49.764;9.796;2022-12-13T07:46:57;-10.30;99.90
5901;DHT22;2976;49.764;9.796;2022-12-13T07:49:23;-10.20;99.90
5901;DHT22;2976;49.764;9.796;2022-12-13T07:51:48;-10.00;99.90
5901;DHT22;2976;49.764;9.796;2022-12-13T07:54:14;-9.80;99.90
5901;DHT22;2976;49.764;9.796;2022-12-13T07:56:39;-9.60;99.90
5901;DHT22;2976;49.764;9.796;2022-12-13T07:59:05;-9.20;99.90
5901;DHT22;2976;49.764;9.796;2022-12-13T08:01:31;-8.80;99.90
5901;DHT22;2976;49.764;9.796;2022-12-13T08:03:59;-8.40;99.90
5901;DHT22;2976;49.764;9.796;2022-12-13T08:06:24;-8.10;99.90
5901;DHT22;2976;49.764;9.796;2022-12-13T08:08:54;-7.80;99.90
5901;DHT22;2976;49.764;9.796;2022-12-13T08:11:20;-7.70;99.90
5901;DHT22;2976;49.764;9.796;2022-12-13T08:13:45;-8.40;99.90
5901;DHT22;2976;49.764;9.796;2022-12-13T08:16:12;-8.80;99.90
5901;DHT22;2976;49.764;9.796;2022-12-13T08:18:39;-9.00;99.90
5901;DHT22;2976;49.764;9.796;2022-12-13T08:21:07;-9.10;99.90
5901;DHT22;2976;49.764;9.796;2022-12-13T08:23:34;-9.00;99.90
5901;DHT22;2976;49.764;9.796;2022-12-13T08:26:01;-8.50;99.90
5901;DHT22;2976;49.764;9.796;2022-12-13T08:28:29;-7.90;99.90
5901;DHT22;2976;49.764;9.796;2022-12-13T08:30:55;-7.40;99.90
5901;DHT22;2976;49.764;9.796;2022-12-13T08:33:21;-7.10;99.90
5901;DHT22;2976;49.764;9.796;2022-12-13T08:35:47;-6.80;99.90
5901;DHT22;2976;49.764;9.796;2022-12-13T08:38:12;-6.60;99.90
5901;DHT22;2976;49.764;9.796;2022-12-13T08:40:38;-6.40;99.90
5901;DHT22;2976;49.764;9.796;2022-12-13T08:43:04;-6.00;99.90
5901;DHT22;2976;49.764;9.796;2022-12-13T08:45:30;-5.70;99.90
5901;DHT22;2976;49.764;9.796;2022-12-13T08:47:58;-5.40;99.90
5901;DHT22;2976;49.764;9.796;2022-12-13T08:50:24;-5.30;99.90
5901;DHT22;2976;49.764;9.796;2022-12-13T08:52:50;-5.10;99.90
5901;DHT22;2976;49.764;9.796;2022-12-13T08:55:16;-5.00;99.90
5901;DHT22;2976;49.764;9.796;2022-12-13T08:57:43;-6.00;99.90
5901;DHT22;2976;49.764;9.796;2022-12-13T09:00:11;-6.00;99.90
5901;DHT22;2976;49.764;9.796;2022-12-13T09:02:37;-5.60;99.90
5901;DHT22;2976;49.764;9.796;2022-12-13T09:05:03;-5.40;99.90
5901;DHT22;2976;49.764;9.796;2022-12-13T09:07:29;-5.10;99.90
5901;DHT22;2976;49.764;9.796;2022-12-13T09:09:54;-4.70;99.90
5901;DHT22;2976;49.764;9.796;2022-12-13T09:12:20;-4.50;99.90
5901;DHT22;2976;49.764;9.796;2022-12-13T09:14:45;-4.20;99.90
5901;DHT22;2976;49.764;9.796;2022-12-13T09:17:13;-4.00;99.90
5901;DHT22;2976;49.764;9.796;2022-12-13T09:19:39;-4.10;99.90
5901;DHT22;2976;49.764;9.796;2022-12-13T09:22:04;-3.80;99.90
5901;DHT22;2976;49.764;9.796;2022-12-13T09:24:30;-3.80;99.90
5901;DHT22;2976;49.764;9.796;2022-12-13T09:26:55;-3.50;99.90
5901;DHT22;2976;49.764;9.796;2022-12-13T09:29:21;-3.60;99.90
5901;DHT22;2976;49.764;9.796;2022-12-13T09:31:46;-3.50;99.90
5901;DHT22;2976;49.764;9.796;2022-12-13T09:34:12;-3.50;99.90
5901;DHT22;2976;49.764;9.796;2022-12-13T09:36:38;-3.70;99.90
5901;DHT22;2976;49.764;9.796;2022-12-13T09:39:03;-3.40;99.90
5901;DHT22;2976;49.764;9.796;2022-12-13T09:41:48;-2.90;99.90
5901;DHT22;2976;49.764;9.796;2022-12-13T09:44:25;-2.80;99.90
5901;DHT22;2976;49.764;9.796;2022-12-13T09:46:52;-2.60;99.90
5901;DHT22;2976;49.764;9.796;2022-12-13T09:49:34;-2.60;99.90
5901;DHT22;2976;49.764;9.796;2022-12-13T09:52:03;-2.60;99.90
5901;DHT22;2976;49.764;9.796;2022-12-13T09:54:30;-2.60;99.90
5901;DHT22;2976;49.764;9.796;2022-12-13T09:56:56;-2.30;99.90
5901;DHT22;2976;49.764;9.796;2022-12-13T09:59:31;-3.00;99.90
5901;DHT22;2976;49.764;9.796;2022-12-13T10:02:06;-3.10;99.90
5901;DHT22;2976;49.764;9.796;2022-12-13T10:04:35;-2.90;99.90
5901;DHT22;2976;49.764;9.796;2022-12-13T10:07:07;-2.60;99.90
5901;DHT22;2976;49.764;9.796;2022-12-13T10:09:34;-3.30;99.90
5901;DHT22;2976;49.764;9.796;2022-12-13T10:11:59;-3.70;99.90
5901;DHT22;2976;49.764;9.796;2022-12-13T10:14:31;-4.10;99.90
5901;DHT22;2976;49.764;9.796;2022-12-13T10:17:01;-4.30;99.90
5901;DHT22;2976;49.764;9.796;2022-12-13T10:19:39;-4.40;99.90
5901;DHT22;2976;49.764;9.796;2022-12-13T10:22:10;-4.10;99.90
5901;DHT22;2976;49.764;9.796;2022-12-13T10:27:47;-2.90;99.90
5901;DHT22;2976;49.764;9.796;2022-12-13T10:30:21;-2.30;99.90
5901;DHT22;2976;49.764;9.796;2022-12-13T10:33:00;-1.80;99.90
5901;DHT22;2976;49.764;9.796;2022-12-13T10:35:29;-1.50;99.90
5901;DHT22;2976;49.764;9.796;2022-12-13T10:37:57;-1.30;99.90
5901;DHT22;2976;49.764;9.796;2022-12-13T10:40:24;-1.10;99.90
5901;DHT22;2976;49.764;9.796;2022-12-13T10:43:14;-1.10;99.90
5901;DHT22;2976;49.764;9.796;2022-12-13T10:48:29;-0.90;99.90
5901;DHT22;2976;49.764;9.796;2022-12-13T10:51:10;-1.00;99.90
5901;DHT22;2976;49.764;9.796;2022-12-13T10:53:57;-1.80;99.90
5901;DHT22;2976;49.764;9.796;2022-12-13T10:56:52;-1.60;99.90
5901;DHT22;2976;49.764;9.796;2022-12-13T10:59:34;-2.00;99.90
5901;DHT22;2976;49.764;9.796;2022-12-13T11:02:01;-2.20;99.90
5901;DHT22;2976;49.764;9.796;2022-12-13T11:04:44;-2.40;99.90
5901;DHT22;2976;49.764;9.796;2022-12-13T11:07:42;-2.00;99.90
5901;DHT22;2976;49.764;9.796;2022-12-13T11:12:48;-1.20;99.90
5901;DHT22;2976;49.764;9.796;2022-12-13T11:15:23;-1.10;99.90
5901;DHT22;2976;49.764;9.796;2022-12-13T11:18:38;-1.10;99.90
5901;DHT22;2976;49.764;9.796;2022-12-13T11:20:52;-1.40;99.90
5901;DHT22;2976;49.764;9.796;2022-12-13T11:26:09;-1.80;99.90
5901;DHT22;2976;49.764;9.796;2022-12-13T11:37:21;-1.90;99.90
5901;DHT22;2976;49.764;9.796;2022-12-13T11:39:54;-1.60;99.90
5901;DHT22;2976;49.764;9.796;2022-12-13T11:42:29;-1.70;99.90
5901;DHT22;2976;49.764;9.796;2022-12-13T11:45:19;-1.80;99.90
5901;DHT22;2976;49.764;9.796;2022-12-13T11:50:41;-2.10;99.90
5901;DHT22;2976;49.764;9.796;2022-12-13T11:53:30;-2.10;99.90
5901;DHT22;2976;49.764;9.796;2022-12-13T11:56:23;-1.90;99.90
5901;DHT22;2976;49.764;9.796;2022-12-13T12:04:56;-1.80;99.90
5901;DHT22;2976;49.764;9.796;2022-12-13T12:09:58;-1.80;99.90
5901;DHT22;2976;49.764;9.796;2022-12-13T12:12:35;-1.80;99.90
5901;DHT22;2976;49.764;9.796;2022-12-13T12:15:21;-1.90;99.90
5901;DHT22;2976;49.764;9.796;2022-12-13T12:17:48;-1.80;99.90
5901;DHT22;2976;49.764;9.796;2022-12-13T12:20:25;-1.90;99.90
5901;DHT22;2976;49.764;9.796;2022-12-13T12:25:54;-2.00;99.90
5901;DHT22;2976;49.764;9.796;2022-12-13T12:31:34;-2.20;99.90
5901;DHT22;2976;49.764;9.796;2022-12-13T12:34:10;-2.30;99.90
5901;DHT22;2976;49.764;9.796;2022-12-13T12:36:42;-2.20;99.90
5901;DHT22;2976;49.764;9.796;2022-12-13T12:39:31;-2.10;99.90
5901;DHT22;2976;49.764;9.796;2022-12-13T12:45:03;-2.10;99.90
5901;DHT22;2976;49.764;9.796;2022-12-13T12:47:48;-2.30;99.90
5901;DHT22;2976;49.764;9.796;2022-12-13T12:50:23;-2.30;99.90
5901;DHT22;2976;49.764;9.796;2022-12-13T12:52:59;-2.30;99.90
5901;DHT22;2976;49.764;9.796;2022-12-13T12:58:18;-2.20;99.90
5901;DHT22;2976;49.764;9.796;2022-12-13T13:03:34;-2.30;99.90
5901;DHT22;2976;49.764;9.796;2022-12-13T13:06:04;-2.40;99.90
5901;DHT22;2976;49.764;9.796;2022-12-13T13:11:07;-2.60;99.90
5901;DHT22;2976;49.764;9.796;2022-12-13T13:16:30;-2.70;99.90
5901;DHT22;2976;49.764;9.796;2022-12-13T13:19:01;-2.70;99.90
5901;DHT22;2976;49.764;9.796;2022-12-13T13:34:41;-2.90;99.90
5901;DHT22;2976;49.764;9.796;2022-12-13T13:39:58;-3.00;99.90
5901;DHT22;2976;49.764;9.796;2022-12-13T13:59:13;-3.30;99.90
5901;DHT22;2976;49.764;9.796;2022-12-13T14:05:23;-3.30;99.90
5901;DHT22;2976;49.764;9.796;2022-12-13T14:10:36;-3.30;99.90
5901;DHT22;2976;49.764;9.796;2022-12-13T14:29:36;-3.80;99.90
5901;DHT22;2976;49.764;9.796;2022-12-13T14:32:21;-3.90;99.90
5901;DHT22;2976;49.764;9.796;2022-12-13T14:34:47;-4.00;99.90
5901;DHT22;2976;49.764;9.796;2022-12-13T14:39:44;-4.20;99.90
5901;DHT22;2976;49.764;9.796;2022-12-13T14:42:24;-4.20;99.90
5901;DHT22;2976;49.764;9.796;2022-12-13T14:44:51;-4.30;99.90
5901;DHT22;2976;49.764;9.796;2022-12-13T14:47:18;-4.30;99.90
5901;DHT22;2976;49.764;9.796;2022-12-13T14:49:46;-4.40;99.90
5901;DHT22;2976;49.764;9.796;2022-12-13T14:52:26;-4.40;99.90
5901;DHT22;2976;49.764;9.796;2022-12-13T14:55:00;-4.50;99.90
5901;DHT22;2976;49.764;9.796;2022-12-13T14:57:30;-4.60;99.90
5901;DHT22;2976;49.764;9.796;2022-12-13T14:59:59;-4.70;99.90
5901;DHT22;2976;49.764;9.796;2022-12-13T15:02:28;-4.90;99.90
5901;DHT22;2976;49.764;9.796;2022-12-13T15:04:55;-5.00;99.90
5901;DHT22;2976;49.764;9.796;2022-12-13T15:07:36;-5.00;99.90
5901;DHT22;2976;49.764;9.796;2022-12-13T15:10:18;-5.10;99.90
5901;DHT22;2976;49.764;9.796;2022-12-13T15:12:45;-5.20;99.90
5901;DHT22;2976;49.764;9.796;2022-12-13T15:15:27;-5.30;99.90
5901;DHT22;2976;49.764;9.796;2022-12-13T15:20:37;-5.40;99.90
5901;DHT22;2976;49.764;9.796;2022-12-13T15:23:11;-5.40;99.90
5901;DHT22;2976;49.764;9.796;2022-12-13T15:25:39;-5.40;99.90
5901;DHT22;2976;49.764;9.796;2022-12-13T15:28:06;-5.50;99.90
5901;DHT22;2976;49.764;9.796;2022-12-13T15:30:34;-5.50;99.90
5901;DHT22;2976;49.764;9.796;2022-12-13T15:36:03;-5.70;99.90
5901;DHT22;2976;49.764;9.796;2022-12-13T15:38:30;-5.80;99.90
5901;DHT22;2976;49.764;9.796;2022-12-13T15:40:56;-5.80;99.90
5901;DHT22;2976;49.764;9.796;2022-12-13T15:43:28;-5.90;99.90
5901;DHT22;2976;49.764;9.796;2022-12-13T15:45:55;-5.80;99.90
5901;DHT22;2976;49.764;9.796;2022-12-13T15:48:27;-5.90;99.90
5901;DHT22;2976;49.764;9.796;2022-12-13T15:53:34;-6.10;99.90
5901;DHT22;2976;49.764;9.796;2022-12-13T15:56:00;-6.10;99.90
5901;DHT22;2976;49.764;9.796;2022-12-13T15:58:36;-6.20;99.90
5901;DHT22;2976;49.764;9.796;2022-12-13T16:01:02;-6.20;99.90
5901;DHT22;2976;49.764;9.796;2022-12-13T16:03:39;-6.20;99.90
5901;DHT22;2976;49.764;9.796;2022-12-13T16:06:06;-6.20;99.90
5901;DHT22;2976;49.764;9.796;2022-12-13T16:08:35;-6.20;99.90
5901;DHT22;2976;49.764;9.796;2022-12-13T16:11:02;-6.20;99.90
5901;DHT22;2976;49.764;9.796;2022-12-13T16:13:33;-6.10;99.90
5901;DHT22;2976;49.764;9.796;2022-12-13T16:16:18;-6.00;99.90
5901;DHT22;2976;49.764;9.796;2022-12-13T16:18:50;-5.90;99.90
5901;DHT22;2976;49.764;9.796;2022-12-13T16:21:16;-5.80;99.90
5901;DHT22;2976;49.764;9.796;2022-12-13T16:23:41;-5.80;99.90
5901;DHT22;2976;49.764;9.796;2022-12-13T16:26:10;-5.80;99.90
5901;DHT22;2976;49.764;9.796;2022-12-13T16:28:38;-5.70;99.90
5901;DHT22;2976;49.764;9.796;2022-12-13T16:31:21;-5.60;99.90
5901;DHT22;2976;49.764;9.796;2022-12-13T16:33:47;-5.60;99.90
5901;DHT22;2976;49.764;9.796;2022-12-13T16:36:13;-5.60;99.90
5901;DHT22;2976;49.764;9.796;2022-12-13T16:38:39;-5.60;99.90
5901;DHT22;2976;49.764;9.796;2022-12-13T16:41:05;-5.70;99.90
5901;DHT22;2976;49.764;9.796;2022-12-13T16:43:33;-5.70;99.90
5901;DHT22;2976;49.764;9.796;2022-12-13T16:46:00;-5.80;99.90
5901;DHT22;2976;49.764;9.796;2022-12-13T16:48:28;-5.80;99.90
5901;DHT22;2976;49.764;9.796;2022-12-13T16:50:53;-5.80;99.90
5901;DHT22;2976;49.764;9.796;2022-12-13T16:53:19;-5.80;99.90
5901;DHT22;2976;49.764;9.796;2022-12-13T16:55:45;-5.80;99.90
5901;DHT22;2976;49.764;9.796;2022-12-13T16:58:13;-5.70;99.90
5901;DHT22;2976;49.764;9.796;2022-12-13T17:00:39;-5.70;99.90
5901;DHT22;2976;49.764;9.796;2022-12-13T17:03:05;-5.80;99.90
5901;DHT22;2976;49.764;9.796;2022-12-13T17:05:32;-5.80;99.90
5901;DHT22;2976;49.764;9.796;2022-12-13T17:07:59;-5.90;99.90
5901;DHT22;2976;49.764;9.796;2022-12-13T17:10:25;-6.00;99.90
5901;DHT22;2976;49.764;9.796;2022-12-13T17:12:52;-6.10;99.90
5901;DHT22;2976;49.764;9.796;2022-12-13T17:15:18;-6.20;99.90
5901;DHT22;2976;49.764;9.796;2022-12-13T17:17:45;-6.30;99.90
5901;DHT22;2976;49.764;9.796;2022-12-13T17:20:13;-6.40;99.90
5901;DHT22;2976;49.764;9.796;2022-12-13T17:22:39;-6.40;99.90
5901;DHT22;2976;49.764;9.796;2022-12-13T17:25:06;-6.50;99.90
5901;DHT22;2976;49.764;9.796;2022-12-13T17:27:32;-6.50;99.90
5901;DHT22;2976;49.764;9.796;2022-12-13T17:29:57;-6.50;99.90
5901;DHT22;2976;49.764;9.796;2022-12-13T17:32:24;-6.60;99.90
5901;DHT22;2976;49.764;9.796;2022-12-13T17:34:50;-6.70;99.90
5901;DHT22;2976;49.764;9.796;2022-12-13T17:37:16;-6.70;99.90
5901;DHT22;2976;49.764;9.796;2022-12-13T17:39:41;-6.80;99.90
5901;DHT22;2976;49.764;9.796;2022-12-13T17:42:07;-6.80;99.90
5901;DHT22;2976;49.764;9.796;2022-12-13T17:44:34;-6.80;99.90
5901;DHT22;2976;49.764;9.796;2022-12-13T17:46:59;-6.80;99.90
5901;DHT22;2976;49.764;9.796;2022-12-13T17:49:25;-6.80;99.90
5901;DHT22;2976;49.764;9.796;2022-12-13T17:51:52;-6.90;99.90
5901;DHT22;2976;49.764;9.796;2022-12-13T17:54:18;-6.80;99.90
5901;DHT22;2976;49.764;9.796;2022-12-13T17:56:44;-6.80;99.90
5901;DHT22;2976;49.764;9.796;2022-12-13T17:59:11;-6.90;99.90
5901;DHT22;2976;49.764;9.796;2022-12-13T18:01:37;-6.90;99.90
5901;DHT22;2976;49.764;9.796;2022-12-13T18:04:03;-7.00;99.90
5901;DHT22;2976;49.764;9.796;2022-12-13T18:06:28;-7.00;99.90
5901;DHT22;2976;49.764;9.796;2022-12-13T18:08:54;-7.00;99.90
5901;DHT22;2976;49.764;9.796;2022-12-13T18:11:20;-7.00;99.90
5901;DHT22;2976;49.764;9.796;2022-12-13T18:13:45;-7.00;99.90
5901;DHT22;2976;49.764;9.796;2022-12-13T18:16:14;-7.00;99.90
5901;DHT22;2976;49.764;9.796;2022-12-13T18:18:40;-6.90;99.90
5901;DHT22;2976;49.764;9.796;2022-12-13T18:21:08;-6.90;99.90
5901;DHT22;2976;49.764;9.796;2022-12-13T18:23:34;-6.80;99.90
5901;DHT22;2976;49.764;9.796;2022-12-13T18:26:02;-6.80;99.90
5901;DHT22;2976;49.764;9.796;2022-12-13T18:28:29;-6.80;99.90
5901;DHT22;2976;49.764;9.796;2022-12-13T18:31:04;-6.70;99.90
5901;DHT22;2976;49.764;9.796;2022-12-13T18:33:31;-6.70;99.90
5901;DHT22;2976;49.764;9.796;2022-12-13T18:35:56;-6.60;99.90